Flight Track Log - Related Links

Times and Time Zones

All times are in EDT time to prevent confusion due to time zone crossing. See the N960DL flight status page for this flight to view local times or setup timezone preferences in your user account.

Time Position Orientation Groundspeed Altitude Reporting Facility
EDT Latitude Longitude Course Direction KTS MPH feet Rate Location/Type
Tue 07:10:04 PM 38.8836 -77.0664 236° Southwest 153 176 1,500  Level Washington Center
Tue 07:11:02 PM 38.9267 -77.1206 316° Northwest 237 273 3,400 2,855 Climbing Washington Center
Tue 07:12:00 PM 38.5965 -77.5272 247° West  Level FlightAware Approximate
Tue 07:12:08 PM 38.9833 -77.1833 319° Northwest 250 288 7,400  Level Potomac TRACON
Tue 07:13:00 PM 38.5371 -77.6548 233° Southwest  Level FlightAware Approximate
Tue 07:13:14 PM 38.9333 -77.2667 232° Southwest 298 343 10,200  Level Potomac TRACON
Tue 07:14:00 PM 38.4647 -77.7704 236° Southwest  Level FlightAware Approximate
Tue 07:15:00 PM 38.4000 -77.8943 236° Southwest  Level FlightAware Approximate
Tue 07:15:02 PM 38.7911 -77.4267 221° Southwest 366 421 13,100  Level Washington Center
Tue 07:16:03 PM 38.7061 -77.5203 221° Southwest 395 455 15,400 2,281 Climbing Washington Center
Tue 07:17:03 PM 38.6150 -77.6189 220° Southwest 417 480 17,700 2,237 Climbing Washington Center
Tue 07:18:01 PM 38.5192 -77.7197 219° Southwest 436 502 19,800 1,815 Climbing Washington Center
Tue 07:19:02 PM 38.4611 -77.8217 234° Southwest 441 507 21,300 1,587 Climbing Washington Center
Tue 07:20:02 PM 38.3833 -77.9675 236° Southwest 453 521 23,000 1,785 Climbing Washington Center
Tue 07:21:03 PM 38.3117 -78.1031 236° Southwest 460 529 24,900 1,361 Climbing Washington Center
Tue 07:22:01 PM 38.2400 -78.2433 237° Southwest 466 536 25,700 1,271 Climbing Washington Center
Tue 07:23:01 PM 38.1636 -78.3858 236° Southwest 486 559 27,400 1,672 Climbing Washington Center
Tue 07:24:03 PM 38.0997 -78.5311 241° Southwest 486 559 29,100 1,475 Climbing Washington Center
Tue 07:25:03 PM 38.0522 -78.6769 248° West 465 535 30,400 1,424 Climbing Washington Center
Tue 07:26:01 PM 37.9978 -78.8433 247° West 465 535 31,900 1,109 Climbing Washington Center
Tue 07:27:02 PM 37.9414 -78.9939 245° Southwest 470 541 32,600 787 Climbing Washington Center
Tue 07:28:03 PM 37.8831 -79.1411 243° Southwest 475 547 33,500 655 Climbing Washington Center
Tue 07:29:01 PM 37.8006 -79.2503 226° Southwest 469 540 33,900 254 Climbing Washington Center
Tue 07:30:01 PM 37.7069 -79.3744 226° Southwest 481 554 34,000 50 Climbing Washington Center
Tue 07:31:01 PM 37.6128 -79.5111 229° Southwest 487 560 34,000  Level Washington Center
Tue 07:32:02 PM 37.5300 -79.6222 227° Southwest 482 555 34,000  Level Washington Center
Tue 07:33:01 PM 37.4403 -79.7431 227° Southwest 476 548 34,000  Level Washington Center
Tue 07:34:01 PM 37.3481 -79.8686 227° Southwest 483 556 34,000  Level Washington Center
Tue 07:35:02 PM 37.2581 -79.9914 227° Southwest 483 556 34,000  Level Washington Center
Tue 07:36:02 PM 37.1592 -80.1292 228° Southwest 478 550 34,000  Level Washington Center
Tue 07:36:20 PM 37.1297 -80.1703 228° Southwest 474 545 34,000  Level Atlanta Center
Tue 07:37:20 PM 37.0475 -80.2758 226° Southwest 479 551 34,000  Level Atlanta Center
Tue 07:38:20 PM 36.9572 -80.3944 226° Southwest 479 551 34,000  Level Atlanta Center
Tue 07:39:20 PM 36.8608 -80.5261 228° Southwest 474 545 34,000 -600 Level Atlanta Center
Tue 07:40:20 PM 36.7706 -80.6442 226° Southwest 469 540 32,800 -1,000 Descending Atlanta Center
Tue 07:41:20 PM 36.6839 -80.7589 227° Southwest 463 533 32,000 -400 Descending Atlanta Center
Tue 07:42:20 PM 36.5911 -80.8792 226° Southwest 474 545 32,000  Level Atlanta Center
Tue 07:43:20 PM 36.4964 -81.0069 227° Southwest 489 563 32,000  Level Atlanta Center
Tue 07:44:20 PM 36.4053 -81.1264 227° Southwest 481 554 32,000  Level Atlanta Center
Tue 07:45:20 PM 36.3103 -81.2508 227° Southwest 486 559 32,000  Level Atlanta Center
Tue 07:46:20 PM 36.2192 -81.3700 227° Southwest 486 559 32,000  Level Atlanta Center
Tue 07:47:20 PM 36.1236 -81.4964 227° Southwest 491 565 32,000  Level Atlanta Center
Tue 07:48:20 PM 36.0281 -81.6175 226° Southwest 491 565 32,000  Level Atlanta Center
Tue 07:49:20 PM 35.9347 -81.7433 228° Southwest 491 565 32,000  Level Atlanta Center
Tue 07:50:20 PM 35.8489 -81.8536 226° Southwest 496 571 32,000  Level Atlanta Center
Tue 07:51:20 PM 35.7531 -81.9764 226° Southwest 496 571 32,000  Level Atlanta Center
Tue 07:52:20 PM 35.6589 -82.0936 225° Southwest 488 562 32,000  Level Atlanta Center
Tue 07:53:20 PM 35.5650 -82.2158 227° Southwest 483 556 32,000 -150 Level Atlanta Center
Tue 07:54:20 PM 35.4664 -82.3328 224° Southwest 490 564 31,700 -500 Descending Atlanta Center
Tue 07:55:20 PM 35.3658 -82.4419 222° Southwest 490 564 31,000 -750 Descending Atlanta Center
Tue 07:56:20 PM 35.2689 -82.5506 222° Southwest 484 557 30,200 -950 Descending Atlanta Center
Tue 07:57:20 PM 35.1661 -82.6617 221° Southwest 471 542 29,100 -950 Descending Atlanta Center
Tue 07:58:20 PM 35.0753 -82.7647 223° Southwest 459 528 28,300 -800 Descending Atlanta Center
Tue 07:59:20 PM 34.9844 -82.8650 222° Southwest 454 522 27,500 -800 Descending Atlanta Center
Tue 08:00:20 PM 34.8997 -82.9547 221° Southwest 454 522 26,700 -700 Descending Atlanta Center
Tue 08:01:20 PM 34.8006 -83.0597 221° Southwest 444 511 26,100 -750 Descending Atlanta Center
Tue 08:02:20 PM 34.7156 -83.1544 223° Southwest 432 497 25,200 -950 Descending Atlanta Center
Tue 08:03:20 PM 34.6308 -83.2511 223° Southwest 420 483 24,200 -1,450 Descending Atlanta Center
Tue 08:04:20 PM 34.5478 -83.3428 222° Southwest 413 475 22,300 -1,900 Descending Atlanta Center
Tue 08:05:20 PM 34.4669 -83.4267 221° Southwest 401 461 20,400 -1,950 Descending Atlanta Center
Tue 08:06:20 PM 34.3900 -83.5128 223° Southwest 386 444 18,400 -1,950 Descending Atlanta Center
Tue 08:07:20 PM 34.3153 -83.5936 222° Southwest 374 430 16,500 -2,000 Descending Atlanta Center
Tue 08:08:20 PM 34.2444 -83.6744 223° Southwest 362 417 14,400 -2,000 Descending Atlanta Center
Tue 08:09:20 PM 34.1656 -83.7550 220° Southwest 362 417 12,500 -1,200 Descending Atlanta Center
Tue 08:10:20 PM 34.1008 -83.8281 223° Southwest 368 423 12,000 -378 Descending Atlanta Center
Tue 08:11:11 PM 34.0333 -83.9000 221° Southwest 327 376 11,800 -649 Descending Atlanta TRACON
Tue 08:12:11 PM 33.9500 -83.9500 206° Southwest 326 375 10,800 -800 Descending Atlanta TRACON
Tue 08:13:11 PM 33.8667 -83.9500 180° South 301 346 10,200 -700 Descending Atlanta TRACON
Tue 08:14:11 PM 33.8000 -83.9500 180° South 279 321 9,400 -884 Descending Atlanta TRACON
Tue 08:15:20 PM 33.7086 -83.9439 177° South 291 335 8,300 -884 Descending Atlanta Center
Tue 08:16:20 PM 33.6419 -83.9539 187° South 263 303 7,500 -650 Descending Atlanta Center
Tue 08:17:20 PM 33.6294 -84.0164 257° West 171 197 7,000 -550 Descending Atlanta Center
Tue 08:18:20 PM 33.6314 -84.0811 272° West 181 208 6,400 -919 Descending Atlanta Center
Tue 08:19:11 PM 33.6333 -84.1333 273° West 176 203 5,300 -914 Descending Atlanta TRACON
Tue 08:20:05 PM 33.6333 -84.1833 270° West 173 199 4,800 -800 Descending Atlanta TRACON
Tue 08:21:11 PM 33.6333 -84.2500 270° West 173 199 3,700 -1,000 Descending Atlanta TRACON

Login

Don't have an account? Register now (free) for customized features, flight alerts, and more!